Time;durP1;ratioP1;P1;durP2;ratioP2;P2;SDS_P1;SDS_P2;PMS_P1;PMS_P2;Temp;Humidity;BMP_temperature;BMP_pressure;BME280_temperature;BME280_humidity;BME280_pressure;Samples;Min_cycle;Max_cycle;Signal;HPM_P1;HPM_P2
2023/08/21 00:01:03;;;;;;;3.72;0.50;;;15.00;99.90;;;;;;5102018;28;20077;-67
2023/08/21 00:03:29;;;;;;;4.80;1.02;;;15.00;99.90;;;;;;5117809;27;20457;-67
2023/08/21 00:05:55;;;;;;;6.28;1.35;;;15.00;99.90;;;;;;5083954;28;20494;-67
2023/08/21 00:08:20;;;;;;;5.10;1.35;;;15.10;99.90;;;;;;5080137;28;20074;-67
2023/08/21 00:10:46;;;;;;;4.90;1.10;;;15.00;99.90;;;;;;5117805;27;20075;-67
2023/08/21 00:13:12;;;;;;;9.07;1.30;;;15.10;99.90;;;;;;5117715;28;20089;-67
2023/08/21 00:15:38;;;;;;;3.03;0.98;;;15.00;99.90;;;;;;5104281;28;20397;-67
2023/08/21 00:18:05;;;;;;;3.90;0.90;;;15.10;99.90;;;;;;5098705;28;20160;-67
2023/08/21 00:20:30;;;;;;;3.50;0.47;;;15.10;99.90;;;;;;5101324;28;20044;-67
2023/08/21 00:22:56;;;;;;;5.10;0.63;;;15.00;99.90;;;;;;5101994;28;20034;-67
2023/08/21 00:25:22;;;;;;;6.53;0.85;;;15.00;99.90;;;;;;5104779;28;20119;-67
2023/08/21 00:27:47;;;;;;;9.60;1.00;;;14.90;99.90;;;;;;5086114;28;20116;-67
2023/08/21 00:30:14;;;;;;;3.85;0.80;;;14.90;99.90;;;;;;5104853;28;20040;-68
2023/08/21 00:32:40;;;;;;;6.25;1.30;;;14.80;99.90;;;;;;5102502;28;20061;-67
2023/08/21 00:35:06;;;;;;;3.03;0.60;;;14.70;99.90;;;;;;5081853;28;20069;-67
2023/08/21 00:37:32;;;;;;;3.92;0.70;;;14.60;99.90;;;;;;5099445;28;20043;-67
2023/08/21 00:39:57;;;;;;;2.75;0.68;;;14.60;99.90;;;;;;5083523;28;20048;-67
2023/08/21 00:42:23;;;;;;;1.70;0.98;;;14.60;99.90;;;;;;5080260;28;20432;-67
2023/08/21 00:44:49;;;;;;;3.80;1.00;;;14.60;99.90;;;;;;5102206;28;20043;-67
2023/08/21 00:47:15;;;;;;;4.80;1.88;;;14.60;99.90;;;;;;5085024;28;20497;-68
2023/08/21 00:49:40;;;;;;;4.38;1.00;;;14.70;99.90;;;;;;5115478;27;20056;-67
2023/08/21 00:52:12;;;;;;;7.60;1.30;;;14.70;99.90;;;;;;5068835;28;20509;-67
2023/08/21 00:54:38;;;;;;;2.83;1.10;;;14.70;99.90;;;;;;5100069;28;20686;-67
2023/08/21 00:57:04;;;;;;;3.17;1.10;;;14.60;99.90;;;;;;5082224;28;20113;-67
2023/08/21 00:59:30;;;;;;;6.80;1.38;;;14.60;99.90;;;;;;5100460;28;20428;-67
2023/08/21 01:01:56;;;;;;;3.15;1.05;;;14.70;99.90;;;;;;5101855;28;20032;-67
2023/08/21 01:04:22;;;;;;;3.38;1.10;;;14.70;99.90;;;;;;5098416;28;20048;-67
2023/08/21 01:06:49;;;;;;;3.03;1.42;;;14.70;99.90;;;;;;5112185;28;20043;-68
2023/08/21 01:09:41;;;;;;;3.88;1.60;;;14.70;99.90;;;;;;5117754;28;20118;-68
2023/08/21 01:12:29;;;;;;;4.55;0.95;;;14.70;99.90;;;;;;5083994;28;20040;-68
2023/08/21 01:15:00;;;;;;;6.68;1.40;;;14.70;99.90;;;;;;5100045;28;20097;-68
2023/08/21 01:17:26;;;;;;;3.67;1.20;;;14.70;99.90;;;;;;5102273;28;20040;-67
2023/08/21 01:19:52;;;;;;;5.40;1.40;;;14.60;99.90;;;;;;5104494;28;20036;-67
2023/08/21 01:22:18;;;;;;;4.50;1.50;;;14.60;99.90;;;;;;5119791;27;20048;-67
2023/08/21 01:24:43;;;;;;;4.30;0.88;;;14.60;99.90;;;;;;5104900;28;20039;-67
2023/08/21 01:27:10;;;;;;;4.05;0.68;;;14.60;99.90;;;;;;5106050;28;20059;-67
2023/08/21 01:29:36;;;;;;;3.88;0.45;;;14.50;99.90;;;;;;5093950;28;20047;-67
2023/08/21 01:32:26;;;;;;;2.58;0.60;;;14.40;99.90;;;;;;5088097;28;20047;-67
2023/08/21 01:34:55;;;;;;;3.55;0.88;;;14.40;99.90;;;;;;5121160;27;20044;-68
2023/08/21 01:37:21;;;;;;;2.10;1.10;;;14.40;99.90;;;;;;5085390;28;20310;-68
2023/08/21 01:39:47;;;;;;;3.42;1.75;;;14.30;99.90;;;;;;5084382;28;20039;-67
2023/08/21 01:42:12;;;;;;;6.00;1.80;;;14.40;99.90;;;;;;5087455;28;20031;-67
2023/08/21 01:44:38;;;;;;;8.45;2.15;;;14.40;99.90;;;;;;5084844;28;21012;-67
2023/08/21 01:47:04;;;;;;;3.63;1.40;;;14.40;99.90;;;;;;5118806;27;20071;-67
2023/08/21 01:49:29;;;;;;;2.55;0.70;;;14.40;99.90;;;;;;5101703;28;20524;-67
2023/08/21 01:51:55;;;;;;;1.83;0.60;;;14.40;99.90;;;;;;5085652;28;20476;-68
2023/08/21 01:54:20;;;;;;;2.55;0.98;;;14.30;99.90;;;;;;5100955;28;20100;-68
2023/08/21 01:56:46;;;;;;;7.05;1.00;;;14.20;99.90;;;;;;5103760;28;20036;-68
2023/08/21 01:59:11;;;;;;;6.35;1.30;;;14.20;99.90;;;;;;5085178;28;20043;-67
2023/08/21 02:01:37;;;;;;;4.57;1.10;;;14.20;99.90;;;;;;5084259;28;20478;-67
2023/08/21 02:04:03;;;;;;;3.75;1.17;;;14.10;99.90;;;;;;5089110;28;20482;-67
2023/08/21 02:06:28;;;;;;;2.88;1.20;;;14.20;99.90;;;;;;5084040;28;20032;-67
2023/08/21 02:08:54;;;;;;;5.75;1.55;;;14.20;99.90;;;;;;5117448;27;20043;-67
2023/08/21 02:11:20;;;;;;;4.82;1.20;;;14.10;99.90;;;;;;5086434;28;20078;-67
2023/08/21 02:13:45;;;;;;;3.67;1.42;;;14.10;99.90;;;;;;5106289;28;20031;-68
2023/08/21 02:16:11;;;;;;;1.98;0.93;;;14.10;99.90;;;;;;5086948;28;20089;-68
2023/08/21 02:18:36;;;;;;;2.20;0.93;;;14.10;99.90;;;;;;5104258;28;20047;-67
2023/08/21 02:21:02;;;;;;;3.20;1.15;;;14.00;99.90;;;;;;5106051;28;20032;-67
2023/08/21 02:23:29;;;;;;;4.03;1.17;;;13.90;99.90;;;;;;5103995;28;20069;-67
2023/08/21 02:25:54;;;;;;;1.50;0.63;;;14.00;99.90;;;;;;5104069;28;20363;-67
2023/08/21 02:28:20;;;;;;;2.15;1.67;;;14.00;99.90;;;;;;5114258;27;20100;-67
2023/08/21 02:30:46;;;;;;;3.67;1.30;;;13.90;99.90;;;;;;5085313;28;20044;-67
2023/08/21 02:33:11;;;;;;;3.45;1.30;;;13.90;99.90;;;;;;5101733;28;20428;-67
2023/08/21 02:35:37;;;;;;;3.20;1.92;;;13.80;99.90;;;;;;5102491;28;20100;-67
2023/08/21 02:38:03;;;;;;;3.63;2.97;;;13.80;99.90;;;;;;5084251;28;20447;-68
2023/08/21 02:40:28;;;;;;;5.55;1.73;;;13.80;99.90;;;;;;5119052;27;20039;-68
2023/08/21 02:42:54;;;;;;;3.50;1.25;;;13.80;99.90;;;;;;5100629;28;20848;-68
2023/08/21 02:45:20;;;;;;;1.35;0.60;;;13.70;99.90;;;;;;5105370;27;20401;-68
2023/08/21 02:47:45;;;;;;;3.53;0.77;;;13.70;99.90;;;;;;5104546;28;20039;-68
2023/08/21 02:50:11;;;;;;;1.33;0.65;;;13.70;99.90;;;;;;5101351;28;20515;-68
2023/08/21 02:52:37;;;;;;;4.65;0.90;;;13.60;99.90;;;;;;5098906;28;20454;-67
2023/08/21 02:55:04;;;;;;;6.03;0.90;;;13.60;99.90;;;;;;5100166;28;20028;-67
2023/08/21 02:57:30;;;;;;;3.90;0.63;;;13.60;99.90;;;;;;5114947;27;20119;-67
2023/08/21 02:59:56;;;;;;;3.50;0.70;;;13.70;99.90;;;;;;5084863;28;20493;-67
2023/08/21 03:02:22;;;;;;;3.63;0.75;;;13.50;99.90;;;;;;5085421;28;20050;-67
2023/08/21 03:04:48;;;;;;;2.40;0.57;;;13.40;99.90;;;;;;5084521;28;20031;-67
2023/08/21 03:07:14;;;;;;;2.85;0.60;;;13.50;99.90;;;;;;5102555;28;20043;-67
2023/08/21 03:09:40;;;;;;;5.45;0.80;;;13.40;99.90;;;;;;5101511;28;20048;-67
2023/08/21 03:12:07;;;;;;;2.38;0.63;;;13.50;99.90;;;;;;5098507;28;20044;-67
2023/08/21 03:14:33;;;;;;;2.30;0.40;;;13.50;99.90;;;;;;5104358;28;20044;-67
2023/08/21 03:16:58;;;;;;;2.38;0.82;;;13.40;99.90;;;;;;5118519;27;20478;-68
2023/08/21 03:19:24;;;;;;;2.30;0.40;;;13.30;99.90;;;;;;5082063;28;20079;-68
2023/08/21 03:21:49;;;;;;;3.40;0.98;;;13.30;99.90;;;;;;5104814;28;20385;-68
2023/08/21 03:24:15;;;;;;;2.70;1.00;;;13.30;99.90;;;;;;5081982;28;20039;-68
2023/08/21 03:26:40;;;;;;;1.50;0.50;;;13.30;99.90;;;;;;5082247;28;20085;-68
2023/08/21 03:29:06;;;;;;;3.83;0.75;;;13.40;99.90;;;;;;5101911;28;20038;-68
2023/08/21 03:31:32;;;;;;;1.55;0.40;;;13.30;99.90;;;;;;5083716;28;20048;-68
2023/08/21 03:33:57;;;;;;;5.25;0.63;;;13.30;99.90;;;;;;5102321;28;20046;-68
2023/08/21 03:36:30;;;;;;;5.05;0.50;;;13.30;99.90;;;;;;5099018;28;20043;-68
2023/08/21 03:38:59;;;;;;;4.63;0.95;;;13.30;99.90;;;;;;5117629;27;20044;-68
2023/08/21 03:41:25;;;;;;;4.55;1.20;;;13.30;99.90;;;;;;5077765;28;20046;-68
2023/08/21 03:43:51;;;;;;;4.78;1.05;;;13.30;99.90;;;;;;5103526;28;20115;-68
2023/08/21 03:46:16;;;;;;;4.00;0.80;;;13.30;99.90;;;;;;5100656;28;20028;-68
2023/08/21 03:48:42;;;;;;;3.60;0.70;;;13.20;99.90;;;;;;5082668;28;20076;-68
2023/08/21 03:51:08;;;;;;;2.42;0.95;;;13.20;99.90;;;;;;5083688;28;20036;-68
2023/08/21 03:53:33;;;;;;;1.90;0.63;;;13.20;99.90;;;;;;5103511;28;20088;-67
2023/08/21 03:55:59;;;;;;;3.35;0.40;;;13.20;99.90;;;;;;5084598;28;20988;-67
2023/08/21 03:58:27;;;;;;;1.20;0.40;;;13.20;99.90;;;;;;5102281;28;20036;-67
2023/08/21 04:00:53;;;;;;;3.78;0.52;;;13.10;99.90;;;;;;5084025;28;20040;-67
2023/08/21 04:03:20;;;;;;;1.48;0.60;;;13.20;99.90;;;;;;5065940;28;20043;-67
2023/08/21 04:05:45;;;;;;;1.60;0.68;;;13.20;99.90;;;;;;5102338;28;20373;-67
2023/08/21 04:08:11;;;;;;;4.22;0.70;;;13.20;99.90;;;;;;5101352;27;20039;-67
2023/08/21 04:10:38;;;;;;;2.45;0.73;;;13.30;99.90;;;;;;5080885;28;20425;-67
2023/08/21 04:13:04;;;;;;;3.95;0.90;;;13.30;99.90;;;;;;5101995;28;20063;-67
2023/08/21 04:15:30;;;;;;;2.50;0.90;;;13.30;99.90;;;;;;5080327;28;20067;-67
2023/08/21 04:17:56;;;;;;;1.48;0.68;;;13.30;99.90;;;;;;5082788;28;20035;-67
2023/08/21 04:20:22;;;;;;;1.85;0.43;;;13.30;99.90;;;;;;5082423;28;20040;-67
2023/08/21 04:22:48;;;;;;;0.82;0.40;;;13.20;99.90;;;;;;5101439;28;20085;-68
2023/08/21 04:25:13;;;;;;;2.80;0.60;;;13.10;99.90;;;;;;5101696;28;20066;-68
2023/08/21 04:27:39;;;;;;;3.03;0.60;;;13.10;99.90;;;;;;5084983;28;20042;-68
2023/08/21 04:30:05;;;;;;;1.95;0.70;;;13.10;99.90;;;;;;5084011;28;20032;-69
2023/08/21 04:32:31;;;;;;;2.58;0.50;;;13.00;99.90;;;;;;5067784;28;20051;-68
2023/08/21 04:34:57;;;;;;;1.90;0.65;;;13.00;99.90;;;;;;5097193;28;20062;-68
2023/08/21 04:37:23;;;;;;;2.08;0.52;;;13.00;99.90;;;;;;5100505;28;20040;-68
2023/08/21 04:39:53;;;;;;;6.32;1.52;;;13.10;99.90;;;;;;5101027;28;20599;-68
2023/08/21 04:42:18;;;;;;;7.25;2.35;;;13.00;99.90;;;;;;5101353;28;20043;-68
2023/08/21 04:44:44;;;;;;;2.33;0.77;;;13.00;99.90;;;;;;5102089;28;20028;-68
2023/08/21 04:47:23;;;;;;;4.15;1.42;;;13.00;99.90;;;;;;5096906;28;20775;-68
2023/08/21 04:49:50;;;;;;;4.88;1.23;;;13.10;99.90;;;;;;5078208;28;20176;-68
2023/08/21 04:52:16;;;;;;;3.38;0.60;;;13.10;99.90;;;;;;5085701;28;20478;-68
2023/08/21 04:54:42;;;;;;;2.67;0.75;;;13.10;99.90;;;;;;5105901;28;20826;-69
2023/08/21 04:57:07;;;;;;;2.53;0.80;;;13.10;99.90;;;;;;5103161;28;20119;-69
2023/08/21 04:59:34;;;;;;;2.85;0.70;;;13.20;99.90;;;;;;5103247;28;20048;-69
2023/08/21 05:02:00;;;;;;;3.00;0.65;;;13.40;99.90;;;;;;5086083;28;20097;-69
2023/08/21 05:04:25;;;;;;;1.10;0.57;;;13.30;99.90;;;;;;5118651;27;20493;-68
2023/08/21 05:06:51;;;;;;;3.17;0.77;;;13.40;99.90;;;;;;5120478;27;20389;-68
2023/08/21 05:09:16;;;;;;;3.38;1.50;;;13.50;99.90;;;;;;5108337;28;20095;-68
2023/08/21 05:11:42;;;;;;;6.47;1.35;;;13.60;99.90;;;;;;5101181;28;20072;-68
2023/08/21 05:14:10;;;;;;;3.85;1.50;;;13.80;99.90;;;;;;5103821;28;20047;-68
2023/08/21 05:16:36;;;;;;;2.65;0.98;;;13.90;99.90;;;;;;5104064;28;20115;-68
2023/08/21 05:19:01;;;;;;;4.53;1.15;;;14.20;99.90;;;;;;5101563;28;20122;-69
2023/08/21 05:21:27;;;;;;;2.22;0.90;;;14.70;99.90;;;;;;5105328;28;20036;-68
2023/08/21 05:23:53;;;;;;;1.88;1.05;;;15.20;99.90;;;;;;5088681;28;20038;-69
2023/08/21 05:26:19;;;;;;;3.28;0.82;;;16.20;99.90;;;;;;5088610;28;20039;-69
2023/08/21 05:28:45;;;;;;;2.63;1.33;;;17.40;99.90;;;;;;5121120;27;20046;-69
2023/08/21 05:31:11;;;;;;;3.10;0.63;;;18.70;99.90;;;;;;5070995;28;20039;-69
2023/08/21 05:33:36;;;;;;;5.10;0.88;;;19.90;99.90;;;;;;5085420;28;20048;-69
2023/08/21 05:36:02;;;;;;;6.95;0.90;;;21.10;99.90;;;;;;5102799;28;20024;-68
2023/08/21 05:38:27;;;;;;;3.33;1.13;;;22.00;99.90;;;;;;5082610;28;20039;-69
2023/08/21 05:40:53;;;;;;;6.97;1.05;;;23.00;99.90;;;;;;5082457;28;20085;-68
2023/08/21 05:43:19;;;;;;;4.13;0.70;;;24.00;99.90;;;;;;5087018;28;20046;-68
2023/08/21 05:45:44;;;;;;;3.92;0.65;;;24.80;99.90;;;;;;5088083;28;20028;-68
2023/08/21 05:48:10;;;;;;;2.75;1.10;;;25.30;99.90;;;;;;5100994;28;20402;-69
2023/08/21 05:50:36;;;;;;;1.13;0.50;;;25.80;99.90;;;;;;5104259;28;20044;-68
2023/08/21 05:53:06;;;;;;;2.63;0.68;;;25.90;99.90;;;;;;5087913;28;20043;-68
2023/08/21 05:55:32;;;;;;;2.95;0.60;;;26.50;99.90;;;;;;5120377;27;20047;-68
2023/08/21 05:57:58;;;;;;;3.67;0.73;;;27.00;99.90;;;;;;5104094;28;20363;-68
2023/08/21 06:00:23;;;;;;;3.40;0.75;;;27.70;99.90;;;;;;5070202;28;20048;-68
2023/08/21 06:02:49;;;;;;;3.70;0.70;;;28.40;99.90;;;;;;5102274;28;20067;-68
2023/08/21 06:05:15;;;;;;;3.83;1.23;;;29.00;99.90;;;;;;5102679;28;20473;-66
2023/08/21 06:07:40;;;;;;;2.95;1.40;;;29.60;99.90;;;;;;5102962;28;20590;-66
2023/08/21 06:10:14;;;;;;;3.83;1.25;;;29.80;99.90;;;;;;5083049;28;20942;-66
2023/08/21 06:12:41;;;;;;;3.00;1.23;;;30.10;99.40;;;;;;5102817;28;20123;-66
2023/08/21 06:15:08;;;;;;;3.08;0.70;;;30.40;99.30;;;;;;5104871;28;20035;-65
2023/08/21 06:17:34;;;;;;;3.70;1.40;;;29.90;99.00;;;;;;5086948;28;20040;-65
2023/08/21 06:20:00;;;;;;;3.88;1.15;;;29.30;99.10;;;;;;5083460;28;20131;-65
2023/08/21 06:22:26;;;;;;;6.47;1.48;;;28.30;99.60;;;;;;5100646;28;20122;-65
2023/08/21 06:24:51;;;;;;;3.17;0.95;;;27.70;99.90;;;;;;5069413;28;20044;-65
2023/08/21 06:27:17;;;;;;;4.53;1.13;;;27.20;99.90;;;;;;5088543;28;20137;-65
2023/08/21 06:29:43;;;;;;;5.30;1.13;;;26.80;99.90;;;;;;5081388;28;20512;-65
2023/08/21 06:32:09;;;;;;;3.65;1.40;;;26.50;99.90;;;;;;5100257;28;20062;-65
2023/08/21 06:34:35;;;;;;;4.78;1.65;;;26.30;99.90;;;;;;5101796;28;20071;-65
2023/08/21 06:37:00;;;;;;;8.38;1.40;;;26.10;99.90;;;;;;5104275;28;20043;-65
2023/08/21 06:39:26;;;;;;;9.77;1.70;;;25.90;99.90;;;;;;5085407;28;20135;-65
2023/08/21 06:41:51;;;;;;;7.03;1.80;;;25.70;99.90;;;;;;5099407;28;20154;-65
2023/08/21 06:44:17;;;;;;;7.65;1.65;;;25.60;99.90;;;;;;5105199;28;20054;-65
2023/08/21 06:46:43;;;;;;;6.13;1.85;;;25.60;99.90;;;;;;5105625;28;20047;-65
2023/08/21 06:49:09;;;;;;;5.10;1.45;;;25.70;99.90;;;;;;5084421;28;20039;-65
2023/08/21 06:51:34;;;;;;;5.47;1.52;;;25.70;99.90;;;;;;5085472;28;20059;-65
2023/08/21 06:54:00;;;;;;;7.22;1.73;;;25.60;99.90;;;;;;5120095;27;20042;-65
2023/08/21 06:56:25;;;;;;;3.13;1.05;;;25.60;99.90;;;;;;5119272;27;20036;-65
2023/08/21 06:58:52;;;;;;;4.97;1.80;;;25.60;99.90;;;;;;5104966;27;20032;-65
2023/08/21 07:01:17;;;;;;;3.53;1.50;;;25.60;99.90;;;;;;5100976;28;20137;-65
2023/08/21 07:03:43;;;;;;;7.03;2.45;;;25.60;99.90;;;;;;5102645;28;20489;-65
2023/08/21 07:06:09;;;;;;;4.07;1.05;;;25.60;99.90;;;;;;5114241;27;20036;-65
2023/08/21 07:08:34;;;;;;;6.05;1.65;;;25.60;99.90;;;;;;5104259;28;20028;-66
2023/08/21 07:11:04;;;;;;;6.78;1.40;;;25.60;99.90;;;;;;5103020;28;20023;-66
2023/08/21 07:13:29;;;;;;;5.03;1.13;;;25.50;99.90;;;;;;5084636;28;20039;-65
2023/08/21 07:15:55;;;;;;;6.32;1.92;;;25.70;99.90;;;;;;5097369;28;20089;-66
2023/08/21 07:18:21;;;;;;;5.78;1.27;;;25.80;99.90;;;;;;5103796;27;20036;-66
2023/08/21 07:20:46;;;;;;;5.22;1.10;;;25.60;99.90;;;;;;5082816;28;20039;-66
2023/08/21 07:23:12;;;;;;;5.93;1.83;;;25.60;99.90;;;;;;5101007;28;20020;-65
2023/08/21 07:25:38;;;;;;;4.43;1.60;;;25.60;99.90;;;;;;5101161;28;20042;-66
2023/08/21 07:28:04;;;;;;;5.80;1.23;;;25.40;99.90;;;;;;5083385;28;20039;-66
2023/08/21 07:30:29;;;;;;;3.78;0.80;;;25.40;99.90;;;;;;5081992;28;20066;-66
2023/08/21 07:32:55;;;;;;;3.75;1.70;;;25.40;99.90;;;;;;5100188;27;20046;-65
2023/08/21 07:35:20;;;;;;;4.60;1.08;;;25.40;99.90;;;;;;5087275;28;20429;-66
2023/08/21 07:37:46;;;;;;;5.47;1.85;;;25.30;99.90;;;;;;5104697;28;20050;-65
2023/08/21 07:40:12;;;;;;;5.47;1.33;;;25.20;99.90;;;;;;5080439;28;20071;-66
2023/08/21 07:42:38;;;;;;;2.50;1.15;;;25.10;99.90;;;;;;5101464;28;20047;-66
2023/08/21 07:45:04;;;;;;;3.50;1.00;;;25.20;99.90;;;;;;5102777;28;20028;-66
2023/08/21 07:47:30;;;;;;;3.67;1.00;;;25.10;99.90;;;;;;5100427;28;20028;-66
2023/08/21 07:49:57;;;;;;;7.50;1.70;;;25.20;99.90;;;;;;5098626;28;20043;-66
2023/08/21 07:52:23;;;;;;;2.90;0.80;;;25.30;99.90;;;;;;5086881;28;20494;-66
2023/08/21 07:54:52;;;;;;;2.95;0.95;;;25.30;99.90;;;;;;5083227;28;20054;-66
2023/08/21 07:57:18;;;;;;;2.85;0.70;;;25.30;99.90;;;;;;5116982;27;20123;-66
2023/08/21 07:59:44;;;;;;;3.47;1.17;;;25.40;99.90;;;;;;5098651;28;20123;-66
2023/08/21 08:02:12;;;;;;;4.18;1.10;;;25.60;99.90;;;;;;5100353;28;20569;-66
2023/08/21 08:04:38;;;;;;;3.17;1.00;;;25.70;99.90;;;;;;5103589;28;20043;-66
2023/08/21 08:07:03;;;;;;;4.93;1.30;;;25.80;99.90;;;;;;5081940;28;20394;-66
2023/08/21 08:09:29;;;;;;;4.75;1.02;;;25.90;99.90;;;;;;5098552;28;20074;-66
2023/08/21 08:11:55;;;;;;;4.20;1.38;;;25.80;99.90;;;;;;5101375;28;20123;-66
2023/08/21 08:14:20;;;;;;;6.18;1.52;;;26.00;99.90;;;;;;5083744;28;20052;-67
2023/08/21 08:16:46;;;;;;;4.32;1.13;;;26.10;99.90;;;;;;5102111;28;20036;-66
2023/08/21 08:19:12;;;;;;;3.17;0.73;;;26.20;99.90;;;;;;5083426;28;20044;-66
2023/08/21 08:21:37;;;;;;;5.18;1.05;;;26.40;99.90;;;;;;5101644;28;20169;-66
2023/08/21 08:24:03;;;;;;;2.95;0.82;;;26.60;99.90;;;;;;5083430;28;20035;-66
2023/08/21 08:26:29;;;;;;;5.47;1.15;;;26.70;99.90;;;;;;5082148;28;20958;-66
2023/08/21 08:28:54;;;;;;;5.85;0.73;;;27.10;99.90;;;;;;5099405;28;20126;-66
2023/08/21 08:31:20;;;;;;;6.97;1.08;;;27.00;99.90;;;;;;5100777;28;20085;-66
2023/08/21 08:33:47;;;;;;;4.35;1.05;;;27.00;99.90;;;;;;5117424;28;20124;-66
2023/08/21 08:36:13;;;;;;;6.18;2.22;;;27.10;99.90;;;;;;5115773;27;20032;-66
2023/08/21 08:38:39;;;;;;;3.88;0.85;;;27.20;99.90;;;;;;5111755;28;20555;-66
2023/08/21 08:41:11;;;;;;;3.53;0.80;;;26.90;99.90;;;;;;5101992;28;20036;-66
2023/08/21 08:43:40;;;;;;;1.58;0.50;;;27.20;99.90;;;;;;5103623;28;20078;-66
2023/08/21 08:46:07;;;;;;;4.43;1.33;;;27.10;99.90;;;;;;5103174;28;20053;-66
2023/08/21 08:48:34;;;;;;;3.88;1.00;;;27.10;99.50;;;;;;5102787;28;20036;-66
2023/08/21 08:51:03;;;;;;;3.65;0.70;;;27.20;99.20;;;;;;5076902;28;20032;-66
2023/08/21 08:53:29;;;;;;;1.70;0.52;;;27.20;99.00;;;;;;5102252;28;20028;-66
2023/08/21 08:55:54;;;;;;;3.83;0.73;;;27.40;99.00;;;;;;5081968;28;20547;-66
2023/08/21 08:58:20;;;;;;;4.93;0.63;;;27.30;98.80;;;;;;5113759;27;20035;-66
2023/08/21 09:00:45;;;;;;;6.75;1.00;;;27.40;98.90;;;;;;5100614;28;20070;-66
2023/08/21 09:03:12;;;;;;;2.47;0.65;;;27.50;99.20;;;;;;5078408;28;20561;-66
2023/08/21 09:05:39;;;;;;;3.83;0.70;;;27.50;98.60;;;;;;5099372;28;20089;-66
2023/08/21 09:08:08;;;;;;;4.70;1.05;;;27.60;99.00;;;;;;5101182;28;20035;-67
2023/08/21 09:10:36;;;;;;;3.47;0.80;;;27.80;99.30;;;;;;5100348;28;20043;-67
2023/08/21 09:13:08;;;;;;;2.67;0.70;;;27.90;99.50;;;;;;5080967;28;20054;-67
2023/08/21 09:15:35;;;;;;;5.60;0.73;;;27.90;99.50;;;;;;5116261;28;20073;-67
2023/08/21 09:18:01;;;;;;;2.47;1.00;;;27.90;98.90;;;;;;5078568;28;20089;-67
2023/08/21 09:20:26;;;;;;;5.88;0.90;;;28.00;99.10;;;;;;5081591;28;20051;-67
2023/08/21 09:22:56;;;;;;;4.07;0.63;;;28.10;99.60;;;;;;5098928;28;20036;-67
2023/08/21 09:25:24;;;;;;;2.95;0.70;;;28.20;98.30;;;;;;5100345;28;20173;-67
2023/08/21 09:27:52;;;;;;;1.98;0.70;;;28.10;98.00;;;;;;5101103;28;20062;-67
2023/08/21 09:30:18;;;;;;;3.15;0.68;;;28.10;98.20;;;;;;5081191;28;20048;-67
2023/08/21 09:32:59;;;;;;;1.88;0.70;;;28.10;98.30;;;;;;5085505;28;20044;-67
2023/08/21 09:35:26;;;;;;;4.13;1.25;;;28.10;97.30;;;;;;5101520;28;20150;-67
2023/08/21 09:37:54;;;;;;;3.72;0.55;;;28.10;97.90;;;;;;5104401;28;20122;-67
2023/08/21 09:40:21;;;;;;;2.30;0.50;;;28.20;97.80;;;;;;5085238;28;20040;-67
2023/08/21 09:43:03;;;;;;;2.40;0.70;;;28.10;97.10;;;;;;5104091;28;20036;-67
2023/08/21 09:45:29;;;;;;;4.03;0.73;;;28.20;97.40;;;;;;5087092;28;20122;-67
2023/08/21 09:47:56;;;;;;;3.40;0.73;;;28.30;97.50;;;;;;5104580;28;20032;-67
2023/08/21 09:50:22;;;;;;;2.63;0.60;;;28.30;97.10;;;;;;5103776;28;20048;-66
2023/08/21 09:52:48;;;;;;;2.97;0.63;;;28.20;96.60;;;;;;5121448;27;20051;-67
2023/08/21 09:55:15;;;;;;;3.78;1.20;;;28.30;98.00;;;;;;5101449;28;20035;-67
2023/08/21 09:57:41;;;;;;;6.93;1.33;;;28.40;97.50;;;;;;5085865;28;20040;-67
2023/08/21 10:00:15;;;;;;;2.80;0.50;;;28.30;96.40;;;;;;5080519;28;20458;-67
2023/08/21 10:02:45;;;;;;;1.97;0.53;;;28.40;97.00;;;;;;5106090;28;20048;-67
2023/08/21 10:05:12;;;;;;;3.53;1.38;;;28.50;97.10;;;;;;5101960;27;20289;-67
2023/08/21 10:07:38;;;;;;;3.08;0.50;;;28.40;97.10;;;;;;5087147;28;20394;-67
2023/08/21 10:10:05;;;;;;;2.38;0.57;;;28.40;97.30;;;;;;5105491;28;20032;-67
2023/08/21 10:12:30;;;;;;;2.53;0.70;;;28.60;97.00;;;;;;5102361;28;20548;-67
2023/08/21 10:14:56;;;;;;;1.95;0.68;;;28.50;97.20;;;;;;5086986;28;20075;-68
2023/08/21 10:17:22;;;;;;;2.35;0.75;;;28.50;96.70;;;;;;5107279;28;20084;-67
2023/08/21 10:19:52;;;;;;;2.30;0.60;;;28.50;96.60;;;;;;5103180;27;20032;-67
2023/08/21 10:22:39;;;;;;;2.63;0.70;;;28.40;96.10;;;;;;5105226;28;20048;-67
2023/08/21 10:25:33;;;;;;;3.35;1.60;;;28.40;96.10;;;;;;5102823;28;20051;-67
2023/08/21 10:28:01;;;;;;;2.08;0.70;;;28.30;95.60;;;;;;5105240;28;20050;-67
2023/08/21 10:30:28;;;;;;;4.05;1.13;;;28.30;96.10;;;;;;5104581;28;20048;-67
2023/08/21 10:32:59;;;;;;;2.00;0.50;;;28.40;96.50;;;;;;5120294;27;20058;-67
2023/08/21 10:35:29;;;;;;;3.97;0.90;;;28.60;96.20;;;;;;5081911;28;20048;-67
2023/08/21 10:38:16;;;;;;;4.00;0.98;;;28.60;95.70;;;;;;5105778;28;20359;-67
2023/08/21 10:41:05;;;;;;;4.30;0.80;;;28.60;95.70;;;;;;5086109;28;20044;-67
2023/08/21 10:43:43;;;;;;;2.22;0.82;;;28.50;94.70;;;;;;5102547;28;20553;-67
2023/08/21 10:46:09;;;;;;;2.65;0.88;;;28.50;95.30;;;;;;5103994;28;20458;-67
2023/08/21 10:48:36;;;;;;;3.50;1.23;;;28.60;96.00;;;;;;5085695;28;20052;-67
2023/08/21 10:51:03;;;;;;;6.63;0.85;;;28.60;95.00;;;;;;5085088;28;20039;-67
2023/08/21 10:53:30;;;;;;;3.58;1.30;;;28.60;95.60;;;;;;5102892;28;20035;-67
2023/08/21 10:55:56;;;;;;;6.00;1.35;;;28.70;95.10;;;;;;5100602;28;20031;-67
2023/08/21 10:58:22;;;;;;;1.60;0.52;;;28.90;94.90;;;;;;5102089;28;20038;-67
2023/08/21 11:00:57;;;;;;;2.22;0.77;;;29.10;94.60;;;;;;5083574;28;20043;-67
2023/08/21 11:03:22;;;;;;;3.88;1.00;;;29.20;94.30;;;;;;5103013;28;20039;-67
2023/08/21 11:06:09;;;;;;;2.63;0.88;;;29.20;95.10;;;;;;5101810;28;20034;-67
2023/08/21 11:08:36;;;;;;;3.25;1.20;;;29.30;95.50;;;;;;5103895;28;20047;-67
2023/08/21 11:11:03;;;;;;;3.38;1.00;;;29.20;94.70;;;;;;5084356;28;20036;-67
2023/08/21 11:13:29;;;;;;;3.55;1.05;;;29.20;95.30;;;;;;5082372;28;20571;-67
2023/08/21 11:16:13;;;;;;;3.67;0.90;;;29.10;95.80;;;;;;5081578;28;20117;-67
2023/08/21 11:18:38;;;;;;;3.13;0.95;;;29.10;94.50;;;;;;5083395;28;20494;-67
2023/08/21 11:21:11;;;;;;;2.63;1.00;;;29.20;96.10;;;;;;5102936;28;20046;-67
2023/08/21 11:23:39;;;;;;;1.83;0.80;;;29.20;95.20;;;;;;5082831;28;20036;-67
2023/08/21 11:26:07;;;;;;;3.80;0.90;;;29.20;95.20;;;;;;5085334;28;20035;-67
2023/08/21 11:28:32;;;;;;;3.33;1.10;;;29.10;94.70;;;;;;5102873;28;20096;-67
2023/08/21 11:30:58;;;;;;;4.68;0.70;;;29.20;95.00;;;;;;5082878;28;20035;-67
2023/08/21 11:33:26;;;;;;;5.22;1.00;;;29.20;95.30;;;;;;5083838;28;20039;-67
2023/08/21 11:35:53;;;;;;;6.15;1.42;;;29.20;94.80;;;;;;5103790;28;20431;-67
2023/08/21 11:38:23;;;;;;;6.05;1.50;;;29.10;94.20;;;;;;5100759;28;20035;-67
2023/08/21 11:40:57;;;;;;;3.95;0.93;;;29.10;94.40;;;;;;5120333;27;20054;-67
2023/08/21 11:43:34;;;;;;;4.10;0.95;;;29.10;94.90;;;;;;5081093;28;20038;-67
2023/08/21 11:46:01;;;;;;;5.97;1.25;;;29.10;95.40;;;;;;5084397;28;20040;-67
2023/08/21 11:48:27;;;;;;;3.95;0.88;;;29.10;94.80;;;;;;5101286;28;20032;-67
2023/08/21 11:50:53;;;;;;;3.70;0.95;;;29.10;94.40;;;;;;5084726;28;20085;-67
2023/08/21 11:53:36;;;;;;;4.85;0.93;;;29.10;95.60;;;;;;5102605;28;20556;-67
2023/08/21 11:56:03;;;;;;;4.50;1.00;;;29.00;94.60;;;;;;5099837;28;20032;-67
2023/08/21 11:58:29;;;;;;;3.47;0.82;;;29.00;95.40;;;;;;5117177;27;20449;-67
2023/08/21 12:01:01;;;;;;;3.30;1.20;;;29.10;94.80;;;;;;5101904;28;20123;-67
2023/08/21 12:03:26;;;;;;;2.15;0.80;;;29.20;94.60;;;;;;5083834;28;20043;-67
2023/08/21 12:05:52;;;;;;;4.25;0.93;;;29.30;95.10;;;;;;5082653;28;20386;-67
2023/08/21 12:08:17;;;;;;;4.00;0.95;;;29.30;95.00;;;;;;5091158;28;20040;-67
2023/08/21 12:10:43;;;;;;;2.95;1.30;;;29.30;94.20;;;;;;5078953;28;20066;-67
2023/08/21 12:13:08;;;;;;;3.20;0.75;;;29.20;94.90;;;;;;5100659;28;20044;-67
2023/08/21 12:15:34;;;;;;;2.30;0.60;;;29.10;93.70;;;;;;5101282;28;20044;-67
2023/08/21 12:18:00;;;;;;;3.13;0.88;;;29.00;93.40;;;;;;5119390;27;20130;-67
2023/08/21 12:20:25;;;;;;;4.78;0.88;;;29.10;93.50;;;;;;5082837;28;20064;-67
2023/08/21 12:22:51;;;;;;;2.40;0.50;;;29.10;93.20;;;;;;5120296;27;20040;-67
2023/08/21 12:25:16;;;;;;;4.35;0.80;;;29.10;92.40;;;;;;5087785;28;20093;-67
2023/08/21 12:27:42;;;;;;;2.15;0.40;;;29.00;93.40;;;;;;5117629;27;20148;-67
2023/08/21 12:30:08;;;;;;;4.10;1.15;;;29.00;92.20;;;;;;5104400;28;20051;-67
2023/08/21 12:32:33;;;;;;;3.28;1.00;;;29.00;92.80;;;;;;5100337;28;20519;-67
2023/08/21 12:34:59;;;;;;;3.53;0.88;;;29.10;92.60;;;;;;5116728;28;20062;-67
2023/08/21 12:37:25;;;;;;;2.08;0.65;;;29.10;92.80;;;;;;5116498;28;20035;-67
2023/08/21 12:39:50;;;;;;;3.97;0.90;;;29.10;91.90;;;;;;5116982;28;20043;-67
2023/08/21 12:42:16;;;;;;;3.45;0.52;;;29.10;92.00;;;;;;5105165;28;20032;-67
2023/08/21 12:44:42;;;;;;;2.13;0.70;;;29.10;92.50;;;;;;5100145;28;20047;-67
2023/08/21 12:47:07;;;;;;;2.72;0.93;;;29.10;92.50;;;;;;5084242;28;20064;-67